sensor_id;sensor_type;location;lat;lon;timestamp;temperature;humidity
34985;DHT22;21190;58.750;17.004;2022-08-19T00:02:00;21.30;99.90
34985;DHT22;21190;58.750;17.004;2022-08-19T00:04:28;21.30;99.90
34985;DHT22;21190;58.750;17.004;2022-08-19T00:06:56;21.30;99.90
34985;DHT22;21190;58.750;17.004;2022-08-19T00:09:23;21.20;99.90
34985;DHT22;21190;58.750;17.004;2022-08-19T00:11:51;21.20;99.90
34985;DHT22;21190;58.750;17.004;2022-08-19T00:14:18;21.20;99.90
34985;DHT22;21190;58.750;17.004;2022-08-19T00:16:47;21.20;99.90
34985;DHT22;21190;58.750;17.004;2022-08-19T00:19:14;21.20;99.90
34985;DHT22;21190;58.750;17.004;2022-08-19T00:21:42;21.10;99.90
34985;DHT22;21190;58.750;17.004;2022-08-19T00:24:10;21.10;99.90
34985;DHT22;21190;58.750;17.004;2022-08-19T00:26:38;21.10;99.90
34985;DHT22;21190;58.750;17.004;2022-08-19T00:29:05;21.10;99.90
34985;DHT22;21190;58.750;17.004;2022-08-19T00:31:32;21.10;99.90
34985;DHT22;21190;58.750;17.004;2022-08-19T00:33:59;21.00;99.90
34985;DHT22;21190;58.750;17.004;2022-08-19T00:36:26;21.00;99.90
34985;DHT22;21190;58.750;17.004;2022-08-19T00:38:55;21.00;99.90
34985;DHT22;21190;58.750;17.004;2022-08-19T00:41:23;21.00;99.90
34985;DHT22;21190;58.750;17.004;2022-08-19T00:44:25;21.00;99.90
34985;DHT22;21190;58.750;17.004;2022-08-19T00:46:44;21.00;99.90
34985;DHT22;21190;58.750;17.004;2022-08-19T00:49:34;21.00;99.90
34985;DHT22;21190;58.750;17.004;2022-08-19T00:52:04;20.90;99.90
34985;DHT22;21190;58.750;17.004;2022-08-19T00:54:33;20.90;99.90
34985;DHT22;21190;58.750;17.004;2022-08-19T00:57:00;21.00;99.90
34985;DHT22;21190;58.750;17.004;2022-08-19T00:59:28;20.90;99.90
34985;DHT22;21190;58.750;17.004;2022-08-19T01:02:15;20.90;99.90
34985;DHT22;21190;58.750;17.004;2022-08-19T01:04:43;20.90;99.90
34985;DHT22;21190;58.750;17.004;2022-08-19T01:07:10;20.80;99.90
34985;DHT22;21190;58.750;17.004;2022-08-19T01:09:42;20.80;99.90
34985;DHT22;21190;58.750;17.004;2022-08-19T01:12:09;20.80;99.90
34985;DHT22;21190;58.750;17.004;2022-08-19T01:14:37;20.80;99.90
34985;DHT22;21190;58.750;17.004;2022-08-19T01:17:06;20.80;99.90
34985;DHT22;21190;58.750;17.004;2022-08-19T01:19:37;20.80;99.90
34985;DHT22;21190;58.750;17.004;2022-08-19T01:24:42;20.80;99.90
34985;DHT22;21190;58.750;17.004;2022-08-19T01:27:15;20.80;99.90
34985;DHT22;21190;58.750;17.004;2022-08-19T01:29:43;20.80;99.90
34985;DHT22;21190;58.750;17.004;2022-08-19T01:32:12;20.80;99.90
34985;DHT22;21190;58.750;17.004;2022-08-19T01:34:59;20.80;99.90
34985;DHT22;21190;58.750;17.004;2022-08-19T01:37:28;20.70;99.90
34985;DHT22;21190;58.750;17.004;2022-08-19T01:39:57;20.70;99.90
34985;DHT22;21190;58.750;17.004;2022-08-19T01:42:24;20.70;99.90
34985;DHT22;21190;58.750;17.004;2022-08-19T01:44:55;20.70;99.90
34985;DHT22;21190;58.750;17.004;2022-08-19T01:47:22;20.70;99.90
34985;DHT22;21190;58.750;17.004;2022-08-19T01:49:49;20.60;99.90
34985;DHT22;21190;58.750;17.004;2022-08-19T01:52:16;20.60;99.90
34985;DHT22;21190;58.750;17.004;2022-08-19T01:54:43;20.60;99.90
34985;DHT22;21190;58.750;17.004;2022-08-19T01:57:11;20.60;99.90
34985;DHT22;21190;58.750;17.004;2022-08-19T01:59:39;20.70;99.90
34985;DHT22;21190;58.750;17.004;2022-08-19T02:02:06;20.60;99.90
34985;DHT22;21190;58.750;17.004;2022-08-19T02:04:37;20.60;99.90
34985;DHT22;21190;58.750;17.004;2022-08-19T02:07:05;20.60;99.90
34985;DHT22;21190;58.750;17.004;2022-08-19T02:09:32;20.60;99.90
34985;DHT22;21190;58.750;17.004;2022-08-19T02:11:59;20.50;99.90
34985;DHT22;21190;58.750;17.004;2022-08-19T02:14:26;20.60;99.90
34985;DHT22;21190;58.750;17.004;2022-08-19T02:16:53;20.60;99.90
34985;DHT22;21190;58.750;17.004;2022-08-19T02:19:20;20.60;99.90
34985;DHT22;21190;58.750;17.004;2022-08-19T02:21:47;20.60;99.90
34985;DHT22;21190;58.750;17.004;2022-08-19T02:24:14;20.60;99.90
34985;DHT22;21190;58.750;17.004;2022-08-19T02:26:41;20.50;99.90
34985;DHT22;21190;58.750;17.004;2022-08-19T02:29:08;20.50;99.90
34985;DHT22;21190;58.750;17.004;2022-08-19T02:31:35;20.50;99.90
34985;DHT22;21190;58.750;17.004;2022-08-19T02:34:02;20.50;99.90
34985;DHT22;21190;58.750;17.004;2022-08-19T02:36:29;20.50;99.90
34985;DHT22;21190;58.750;17.004;2022-08-19T02:38:56;20.50;99.90
34985;DHT22;21190;58.750;17.004;2022-08-19T02:41:28;20.50;99.90
34985;DHT22;21190;58.750;17.004;2022-08-19T02:43:55;20.60;99.90
34985;DHT22;21190;58.750;17.004;2022-08-19T02:46:47;20.50;99.90
34985;DHT22;21190;58.750;17.004;2022-08-19T02:49:17;20.50;99.90
34985;DHT22;21190;58.750;17.004;2022-08-19T02:51:45;20.40;99.90
34985;DHT22;21190;58.750;17.004;2022-08-19T02:54:12;20.50;99.90
34985;DHT22;21190;58.750;17.004;2022-08-19T02:56:40;20.40;99.90
34985;DHT22;21190;58.750;17.004;2022-08-19T02:59:07;20.50;99.90
34985;DHT22;21190;58.750;17.004;2022-08-19T03:01:38;20.40;99.90
34985;DHT22;21190;58.750;17.004;2022-08-19T03:04:08;20.40;99.90
34985;DHT22;21190;58.750;17.004;2022-08-19T03:06:36;20.40;99.90
34985;DHT22;21190;58.750;17.004;2022-08-19T03:09:04;20.40;99.90
34985;DHT22;21190;58.750;17.004;2022-08-19T03:11:31;20.40;99.90
34985;DHT22;21190;58.750;17.004;2022-08-19T03:13:59;20.40;99.90
34985;DHT22;21190;58.750;17.004;2022-08-19T03:16:27;20.40;99.90
34985;DHT22;21190;58.750;17.004;2022-08-19T03:18:59;20.40;99.90
34985;DHT22;21190;58.750;17.004;2022-08-19T03:21:28;20.40;99.90
34985;DHT22;21190;58.750;17.004;2022-08-19T03:23:57;20.40;99.90
34985;DHT22;21190;58.750;17.004;2022-08-19T03:26:24;20.40;99.90
34985;DHT22;21190;58.750;17.004;2022-08-19T03:28:51;20.30;99.90
34985;DHT22;21190;58.750;17.004;2022-08-19T03:31:25;20.40;99.90
34985;DHT22;21190;58.750;17.004;2022-08-19T03:34:13;20.40;99.90
34985;DHT22;21190;58.750;17.004;2022-08-19T03:36:40;20.40;99.90
34985;DHT22;21190;58.750;17.004;2022-08-19T03:39:09;20.40;99.90
34985;DHT22;21190;58.750;17.004;2022-08-19T03:41:37;20.40;99.90
34985;DHT22;21190;58.750;17.004;2022-08-19T03:44:15;20.40;99.90
34985;DHT22;21190;58.750;17.004;2022-08-19T03:46:44;20.50;99.90
34985;DHT22;21190;58.750;17.004;2022-08-19T03:49:11;20.40;99.90
34985;DHT22;21190;58.750;17.004;2022-08-19T03:51:40;20.40;99.90
34985;DHT22;21190;58.750;17.004;2022-08-19T03:54:09;20.40;99.90
34985;DHT22;21190;58.750;17.004;2022-08-19T03:56:37;20.50;99.90
34985;DHT22;21190;58.750;17.004;2022-08-19T03:59:05;20.50;99.90
34985;DHT22;21190;58.750;17.004;2022-08-19T04:01:34;20.50;99.90
34985;DHT22;21190;58.750;17.004;2022-08-19T04:04:02;20.50;99.90
34985;DHT22;21190;58.750;17.004;2022-08-19T04:06:31;20.40;99.90
34985;DHT22;21190;58.750;17.004;2022-08-19T04:08:59;20.40;99.90
34985;DHT22;21190;58.750;17.004;2022-08-19T04:11:28;20.40;99.90
34985;DHT22;21190;58.750;17.004;2022-08-19T04:14:10;20.30;99.90
34985;DHT22;21190;58.750;17.004;2022-08-19T04:16:38;20.30;99.90
34985;DHT22;21190;58.750;17.004;2022-08-19T04:19:05;20.30;99.90
34985;DHT22;21190;58.750;17.004;2022-08-19T04:21:33;20.30;99.90
34985;DHT22;21190;58.750;17.004;2022-08-19T04:24:01;20.30;99.90
34985;DHT22;21190;58.750;17.004;2022-08-19T04:26:30;20.20;99.90
34985;DHT22;21190;58.750;17.004;2022-08-19T04:29:02;20.20;99.90
34985;DHT22;21190;58.750;17.004;2022-08-19T04:31:33;20.20;99.90
34985;DHT22;21190;58.750;17.004;2022-08-19T04:34:04;20.20;99.90
34985;DHT22;21190;58.750;17.004;2022-08-19T04:36:35;20.10;99.90
34985;DHT22;21190;58.750;17.004;2022-08-19T04:39:04;20.10;99.90
34985;DHT22;21190;58.750;17.004;2022-08-19T04:41:32;20.10;99.90
34985;DHT22;21190;58.750;17.004;2022-08-19T04:44:17;20.20;99.90
34985;DHT22;21190;58.750;17.004;2022-08-19T04:46:45;20.10;99.90
34985;DHT22;21190;58.750;17.004;2022-08-19T04:49:18;20.10;99.90
34985;DHT22;21190;58.750;17.004;2022-08-19T04:51:46;20.20;99.90
34985;DHT22;21190;58.750;17.004;2022-08-19T04:54:14;20.10;99.90
34985;DHT22;21190;58.750;17.004;2022-08-19T04:57:01;20.10;99.90
34985;DHT22;21190;58.750;17.004;2022-08-19T04:59:29;20.10;99.90
34985;DHT22;21190;58.750;17.004;2022-08-19T05:01:56;20.10;99.90
34985;DHT22;21190;58.750;17.004;2022-08-19T05:04:24;20.10;99.90
34985;DHT22;21190;58.750;17.004;2022-08-19T05:06:51;20.10;99.90
34985;DHT22;21190;58.750;17.004;2022-08-19T05:09:26;20.10;99.90
34985;DHT22;21190;58.750;17.004;2022-08-19T05:11:56;20.10;99.90
34985;DHT22;21190;58.750;17.004;2022-08-19T05:14:23;20.10;99.90
34985;DHT22;21190;58.750;17.004;2022-08-19T05:16:49;20.10;99.90
34985;DHT22;21190;58.750;17.004;2022-08-19T05:19:36;20.10;99.90
34985;DHT22;21190;58.750;17.004;2022-08-19T05:22:22;20.10;99.90
34985;DHT22;21190;58.750;17.004;2022-08-19T05:25:06;20.10;99.90
34985;DHT22;21190;58.750;17.004;2022-08-19T05:27:39;20.10;99.90
34985;DHT22;21190;58.750;17.004;2022-08-19T05:30:06;20.10;99.90
34985;DHT22;21190;58.750;17.004;2022-08-19T05:32:34;20.20;99.90
34985;DHT22;21190;58.750;17.004;2022-08-19T05:35:01;20.20;99.90
34985;DHT22;21190;58.750;17.004;2022-08-19T05:37:28;20.10;99.90
34985;DHT22;21190;58.750;17.004;2022-08-19T05:39:55;20.10;99.90
34985;DHT22;21190;58.750;17.004;2022-08-19T05:42:22;20.10;99.90
34985;DHT22;21190;58.750;17.004;2022-08-19T05:44:50;20.20;99.90
34985;DHT22;21190;58.750;17.004;2022-08-19T05:47:17;20.20;99.90
34985;DHT22;21190;58.750;17.004;2022-08-19T05:49:46;20.20;99.90
34985;DHT22;21190;58.750;17.004;2022-08-19T05:52:14;20.20;99.90
34985;DHT22;21190;58.750;17.004;2022-08-19T05:54:44;20.20;99.90
34985;DHT22;21190;58.750;17.004;2022-08-19T05:57:17;20.20;99.90
34985;DHT22;21190;58.750;17.004;2022-08-19T05:59:45;20.30;99.90
34985;DHT22;21190;58.750;17.004;2022-08-19T06:02:25;20.30;99.90
34985;DHT22;21190;58.750;17.004;2022-08-19T06:04:52;20.30;99.90
34985;DHT22;21190;58.750;17.004;2022-08-19T06:07:18;20.30;99.90
34985;DHT22;21190;58.750;17.004;2022-08-19T06:09:46;20.30;99.90
34985;DHT22;21190;58.750;17.004;2022-08-19T06:12:27;20.40;99.90
34985;DHT22;21190;58.750;17.004;2022-08-19T06:14:58;20.30;99.90
34985;DHT22;21190;58.750;17.004;2022-08-19T06:17:27;20.40;99.90
34985;DHT22;21190;58.750;17.004;2022-08-19T06:19:57;20.40;99.90
34985;DHT22;21190;58.750;17.004;2022-08-19T06:22:27;20.40;99.90
34985;DHT22;21190;58.750;17.004;2022-08-19T06:24:55;20.40;99.90
34985;DHT22;21190;58.750;17.004;2022-08-19T06:27:22;20.50;99.90
34985;DHT22;21190;58.750;17.004;2022-08-19T06:29:49;20.50;99.90
34985;DHT22;21190;58.750;17.004;2022-08-19T06:32:16;20.50;99.90
34985;DHT22;21190;58.750;17.004;2022-08-19T06:34:44;20.60;99.90
34985;DHT22;21190;58.750;17.004;2022-08-19T06:37:11;20.60;99.90
34985;DHT22;21190;58.750;17.004;2022-08-19T06:39:39;20.60;99.90
34985;DHT22;21190;58.750;17.004;2022-08-19T06:42:07;20.60;99.90
34985;DHT22;21190;58.750;17.004;2022-08-19T06:44:37;20.70;99.90
34985;DHT22;21190;58.750;17.004;2022-08-19T06:47:09;20.70;99.90
34985;DHT22;21190;58.750;17.004;2022-08-19T06:49:48;20.70;99.90
34985;DHT22;21190;58.750;17.004;2022-08-19T06:52:15;20.80;99.90
34985;DHT22;21190;58.750;17.004;2022-08-19T06:54:42;20.80;99.90
34985;DHT22;21190;58.750;17.004;2022-08-19T06:57:22;20.80;99.90
34985;DHT22;21190;58.750;17.004;2022-08-19T06:59:49;20.80;99.90
34985;DHT22;21190;58.750;17.004;2022-08-19T07:02:16;20.80;99.90
34985;DHT22;21190;58.750;17.004;2022-08-19T07:04:44;20.80;99.90
34985;DHT22;21190;58.750;17.004;2022-08-19T07:07:13;20.90;99.90
34985;DHT22;21190;58.750;17.004;2022-08-19T07:09:47;21.00;99.90
34985;DHT22;21190;58.750;17.004;2022-08-19T07:12:27;21.00;99.90
34985;DHT22;21190;58.750;17.004;2022-08-19T07:14:56;21.10;99.90
34985;DHT22;21190;58.750;17.004;2022-08-19T07:17:24;21.10;99.90
34985;DHT22;21190;58.750;17.004;2022-08-19T07:19:51;21.20;99.90
34985;DHT22;21190;58.750;17.004;2022-08-19T07:22:20;21.20;99.90
34985;DHT22;21190;58.750;17.004;2022-08-19T07:24:50;21.20;99.90
34985;DHT22;21190;58.750;17.004;2022-08-19T07:27:17;21.20;99.90
34985;DHT22;21190;58.750;17.004;2022-08-19T07:29:50;21.20;99.90
34985;DHT22;21190;58.750;17.004;2022-08-19T07:32:23;21.30;99.90
34985;DHT22;21190;58.750;17.004;2022-08-19T07:34:52;21.40;99.90
34985;DHT22;21190;58.750;17.004;2022-08-19T07:37:19;21.40;99.90
34985;DHT22;21190;58.750;17.004;2022-08-19T07:39:46;21.40;99.90
34985;DHT22;21190;58.750;17.004;2022-08-19T07:42:13;21.50;99.90
34985;DHT22;21190;58.750;17.004;2022-08-19T07:44:41;21.50;99.90
34985;DHT22;21190;58.750;17.004;2022-08-19T07:47:16;21.50;99.90
34985;DHT22;21190;58.750;17.004;2022-08-19T07:50:05;21.50;99.90
34985;DHT22;21190;58.750;17.004;2022-08-19T07:52:33;21.50;99.90
34985;DHT22;21190;58.750;17.004;2022-08-19T07:55:03;21.50;99.90
34985;DHT22;21190;58.750;17.004;2022-08-19T07:57:31;21.60;99.90
34985;DHT22;21190;58.750;17.004;2022-08-19T07:59:58;21.60;99.90
34985;DHT22;21190;58.750;17.004;2022-08-19T08:02:25;21.60;99.90
34985;DHT22;21190;58.750;17.004;2022-08-19T08:04:54;21.70;99.90
34985;DHT22;21190;58.750;17.004;2022-08-19T08:07:40;21.70;99.90
34985;DHT22;21190;58.750;17.004;2022-08-19T08:10:39;21.80;99.90
34985;DHT22;21190;58.750;17.004;2022-08-19T08:13:07;21.80;99.90
34985;DHT22;21190;58.750;17.004;2022-08-19T08:15:37;21.90;99.90
34985;DHT22;21190;58.750;17.004;2022-08-19T08:18:09;22.00;99.90
34985;DHT22;21190;58.750;17.004;2022-08-19T08:20:37;22.10;99.90
34985;DHT22;21190;58.750;17.004;2022-08-19T08:23:04;22.30;99.90
34985;DHT22;21190;58.750;17.004;2022-08-19T08:25:49;22.30;99.90
34985;DHT22;21190;58.750;17.004;2022-08-19T08:28:16;22.40;99.90
34985;DHT22;21190;58.750;17.004;2022-08-19T08:30:44;22.60;99.90
34985;DHT22;21190;58.750;17.004;2022-08-19T08:33:20;22.60;99.90
34985;DHT22;21190;58.750;17.004;2022-08-19T08:36:00;22.70;99.90
34985;DHT22;21190;58.750;17.004;2022-08-19T08:38:29;22.70;99.90
34985;DHT22;21190;58.750;17.004;2022-08-19T08:43:50;22.90;99.90
34985;DHT22;21190;58.750;17.004;2022-08-19T08:46:21;22.90;99.90
34985;DHT22;21190;58.750;17.004;2022-08-19T08:49:05;23.10;99.90
34985;DHT22;21190;58.750;17.004;2022-08-19T08:51:37;23.10;99.90
34985;DHT22;21190;58.750;17.004;2022-08-19T08:54:11;23.20;99.90
34985;DHT22;21190;58.750;17.004;2022-08-19T08:56:39;23.20;99.90
34985;DHT22;21190;58.750;17.004;2022-08-19T08:59:12;23.30;99.90
34985;DHT22;21190;58.750;17.004;2022-08-19T09:01:43;23.40;99.90
34985;DHT22;21190;58.750;17.004;2022-08-19T09:04:10;23.50;99.90
34985;DHT22;21190;58.750;17.004;2022-08-19T09:09:26;23.60;99.90
34985;DHT22;21190;58.750;17.004;2022-08-19T09:12:05;23.70;99.90
34985;DHT22;21190;58.750;17.004;2022-08-19T09:17:17;23.70;99.90
34985;DHT22;21190;58.750;17.004;2022-08-19T09:19:50;23.80;99.90
34985;DHT22;21190;58.750;17.004;2022-08-19T09:22:17;23.80;99.90
34985;DHT22;21190;58.750;17.004;2022-08-19T09:24:51;23.90;99.90
34985;DHT22;21190;58.750;17.004;2022-08-19T09:27:22;23.90;99.90
34985;DHT22;21190;58.750;17.004;2022-08-19T09:30:15;24.00;99.90
34985;DHT22;21190;58.750;17.004;2022-08-19T09:32:43;24.00;99.90
34985;DHT22;21190;58.750;17.004;2022-08-19T09:35:11;24.10;99.90
34985;DHT22;21190;58.750;17.004;2022-08-19T09:37:39;24.20;99.90
34985;DHT22;21190;58.750;17.004;2022-08-19T09:40:08;24.20;99.90
34985;DHT22;21190;58.750;17.004;2022-08-19T09:42:37;24.20;99.90
34985;DHT22;21190;58.750;17.004;2022-08-19T09:45:16;24.30;99.90
34985;DHT22;21190;58.750;17.004;2022-08-19T09:47:44;24.20;99.90
34985;DHT22;21190;58.750;17.004;2022-08-19T09:50:12;24.30;99.90
34985;DHT22;21190;58.750;17.004;2022-08-19T09:52:42;24.30;99.90
34985;DHT22;21190;58.750;17.004;2022-08-19T09:55:23;24.30;99.90
34985;DHT22;21190;58.750;17.004;2022-08-19T09:57:58;24.40;99.90
34985;DHT22;21190;58.750;17.004;2022-08-19T10:00:25;24.40;99.90
34985;DHT22;21190;58.750;17.004;2022-08-19T10:02:53;24.50;99.90
34985;DHT22;21190;58.750;17.004;2022-08-19T10:05:20;24.40;99.90
34985;DHT22;21190;58.750;17.004;2022-08-19T10:08:08;24.50;99.90
34985;DHT22;21190;58.750;17.004;2022-08-19T10:10:42;24.60;99.90
34985;DHT22;21190;58.750;17.004;2022-08-19T10:13:14;24.60;99.90
34985;DHT22;21190;58.750;17.004;2022-08-19T10:15:41;24.60;99.90
34985;DHT22;21190;58.750;17.004;2022-08-19T10:18:13;24.60;99.90
34985;DHT22;21190;58.750;17.004;2022-08-19T10:20:41;24.70;99.90
34985;DHT22;21190;58.750;17.004;2022-08-19T10:23:09;24.70;99.90
34985;DHT22;21190;58.750;17.004;2022-08-19T10:25:35;24.70;99.90
34985;DHT22;21190;58.750;17.004;2022-08-19T10:28:04;24.80;99.90
34985;DHT22;21190;58.750;17.004;2022-08-19T10:30:36;24.80;99.90
34985;DHT22;21190;58.750;17.004;2022-08-19T10:33:03;24.80;99.90
34985;DHT22;21190;58.750;17.004;2022-08-19T10:35:36;24.80;99.90
34985;DHT22;21190;58.750;17.004;2022-08-19T10:38:22;24.90;99.90
34985;DHT22;21190;58.750;17.004;2022-08-19T10:40:57;24.90;99.90
34985;DHT22;21190;58.750;17.004;2022-08-19T10:43:24;25.00;99.90
34985;DHT22;21190;58.750;17.004;2022-08-19T10:45:52;25.00;99.90
34985;DHT22;21190;58.750;17.004;2022-08-19T10:48:20;25.00;99.90
34985;DHT22;21190;58.750;17.004;2022-08-19T10:50:47;25.10;99.90
34985;DHT22;21190;58.750;17.004;2022-08-19T10:53:33;25.10;99.90
34985;DHT22;21190;58.750;17.004;2022-08-19T10:56:01;25.20;99.90
34985;DHT22;21190;58.750;17.004;2022-08-19T10:58:46;25.20;99.90
34985;DHT22;21190;58.750;17.004;2022-08-19T11:01:15;25.20;99.90
34985;DHT22;21190;58.750;17.004;2022-08-19T11:03:42;25.30;99.90
34985;DHT22;21190;58.750;17.004;2022-08-19T11:06:09;25.40;99.90
34985;DHT22;21190;58.750;17.004;2022-08-19T11:08:36;25.40;99.90
34985;DHT22;21190;58.750;17.004;2022-08-19T11:11:04;25.50;99.90
34985;DHT22;21190;58.750;17.004;2022-08-19T11:13:33;25.50;99.90
34985;DHT22;21190;58.750;17.004;2022-08-19T11:18:37;25.60;99.90
34985;DHT22;21190;58.750;17.004;2022-08-19T11:23:53;25.70;99.90
34985;DHT22;21190;58.750;17.004;2022-08-19T11:26:21;25.70;99.90
34985;DHT22;21190;58.750;17.004;2022-08-19T11:28:48;25.70;99.90
34985;DHT22;21190;58.750;17.004;2022-08-19T11:31:19;25.70;99.90
34985;DHT22;21190;58.750;17.004;2022-08-19T11:33:46;25.70;99.90
34985;DHT22;21190;58.750;17.004;2022-08-19T11:36:13;25.80;99.90
34985;DHT22;21190;58.750;17.004;2022-08-19T11:38:41;25.80;99.90
34985;DHT22;21190;58.750;17.004;2022-08-19T11:41:09;25.80;99.90
34985;DHT22;21190;58.750;17.004;2022-08-19T11:43:36;25.80;99.90
34985;DHT22;21190;58.750;17.004;2022-08-19T11:46:04;25.80;99.90
34985;DHT22;21190;58.750;17.004;2022-08-19T11:48:32;25.80;99.90
34985;DHT22;21190;58.750;17.004;2022-08-19T11:51:02;25.80;99.90
34985;DHT22;21190;58.750;17.004;2022-08-19T11:53:32;25.80;99.90
34985;DHT22;21190;58.750;17.004;2022-08-19T11:56:01;25.80;99.90
34985;DHT22;21190;58.750;17.004;2022-08-19T11:58:28;25.80;99.90
34985;DHT22;21190;58.750;17.004;2022-08-19T12:00:58;25.80;99.90
34985;DHT22;21190;58.750;17.004;2022-08-19T12:03:25;25.90;99.90
34985;DHT22;21190;58.750;17.004;2022-08-19T12:05:52;25.90;99.90
34985;DHT22;21190;58.750;17.004;2022-08-19T12:08:19;25.90;99.90
34985;DHT22;21190;58.750;17.004;2022-08-19T12:10:46;26.00;99.90
34985;DHT22;21190;58.750;17.004;2022-08-19T12:13:13;26.00;99.90
34985;DHT22;21190;58.750;17.004;2022-08-19T12:15:45;26.00;99.90
34985;DHT22;21190;58.750;17.004;2022-08-19T12:18:12;26.00;99.90
34985;DHT22;21190;58.750;17.004;2022-08-19T12:20:43;26.00;99.90
34985;DHT22;21190;58.750;17.004;2022-08-19T12:23:12;26.00;99.90
34985;DHT22;21190;58.750;17.004;2022-08-19T12:25:46;26.00;99.90
34985;DHT22;21190;58.750;17.004;2022-08-19T12:28:17;26.00;99.90
34985;DHT22;21190;58.750;17.004;2022-08-19T12:30:45;26.10;99.90
34985;DHT22;21190;58.750;17.004;2022-08-19T12:33:12;26.10;99.90
34985;DHT22;21190;58.750;17.004;2022-08-19T12:35:40;26.10;99.90
34985;DHT22;21190;58.750;17.004;2022-08-19T12:38:11;26.10;99.90
34985;DHT22;21190;58.750;17.004;2022-08-19T12:40:38;26.10;99.90
34985;DHT22;21190;58.750;17.004;2022-08-19T12:43:07;26.00;99.90
34985;DHT22;21190;58.750;17.004;2022-08-19T12:45:33;26.00;99.90
34985;DHT22;21190;58.750;17.004;2022-08-19T12:48:02;26.10;99.90
34985;DHT22;21190;58.750;17.004;2022-08-19T12:50:49;26.00;99.90
34985;DHT22;21190;58.750;17.004;2022-08-19T12:53:16;25.90;99.90
34985;DHT22;21190;58.750;17.004;2022-08-19T12:55:43;25.90;99.90
34985;DHT22;21190;58.750;17.004;2022-08-19T12:58:12;25.90;99.90
34985;DHT22;21190;58.750;17.004;2022-08-19T13:00:39;25.90;99.90
34985;DHT22;21190;58.750;17.004;2022-08-19T13:03:06;25.90;99.90
34985;DHT22;21190;58.750;17.004;2022-08-19T13:05:33;26.00;99.90
34985;DHT22;21190;58.750;17.004;2022-08-19T13:08:00;26.00;99.90
34985;DHT22;21190;58.750;17.004;2022-08-19T13:10:31;26.00;99.90
34985;DHT22;21190;58.750;17.004;2022-08-19T13:13:02;26.00;99.90
34985;DHT22;21190;58.750;17.004;2022-08-19T13:15:32;26.10;99.90
34985;DHT22;21190;58.750;17.004;2022-08-19T13:17:59;26.10;99.90
34985;DHT22;21190;58.750;17.004;2022-08-19T13:20:26;26.00;99.90
34985;DHT22;21190;58.750;17.004;2022-08-19T13:22:54;26.10;99.90
34985;DHT22;21190;58.750;17.004;2022-08-19T13:25:21;26.10;99.90
34985;DHT22;21190;58.750;17.004;2022-08-19T13:27:48;26.00;99.90
34985;DHT22;21190;58.750;17.004;2022-08-19T13:30:16;26.10;99.90
34985;DHT22;21190;58.750;17.004;2022-08-19T13:33:02;26.10;99.90
34985;DHT22;21190;58.750;17.004;2022-08-19T13:38:08;26.00;99.90
34985;DHT22;21190;58.750;17.004;2022-08-19T13:40:38;26.00;99.90
34985;DHT22;21190;58.750;17.004;2022-08-19T13:43:07;26.10;99.90
34985;DHT22;21190;58.750;17.004;2022-08-19T13:45:47;26.20;99.90
34985;DHT22;21190;58.750;17.004;2022-08-19T13:48:14;26.20;99.90
34985;DHT22;21190;58.750;17.004;2022-08-19T13:50:42;26.30;99.90
34985;DHT22;21190;58.750;17.004;2022-08-19T13:53:10;26.30;99.90
34985;DHT22;21190;58.750;17.004;2022-08-19T13:55:38;26.20;99.90
34985;DHT22;21190;58.750;17.004;2022-08-19T13:58:06;26.20;99.90
34985;DHT22;21190;58.750;17.004;2022-08-19T14:00:34;26.30;99.90
34985;DHT22;21190;58.750;17.004;2022-08-19T14:03:02;26.40;99.90
34985;DHT22;21190;58.750;17.004;2022-08-19T14:05:34;26.40;99.90
34985;DHT22;21190;58.750;17.004;2022-08-19T14:08:01;26.50;99.90
34985;DHT22;21190;58.750;17.004;2022-08-19T14:10:29;26.50;99.90
34985;DHT22;21190;58.750;17.004;2022-08-19T14:12:59;26.50;99.90
34985;DHT22;21190;58.750;17.004;2022-08-19T14:15:27;26.60;99.90
34985;DHT22;21190;58.750;17.004;2022-08-19T14:17:54;26.70;99.90
34985;DHT22;21190;58.750;17.004;2022-08-19T14:20:21;26.80;99.90
34985;DHT22;21190;58.750;17.004;2022-08-19T14:22:52;26.80;99.90
34985;DHT22;21190;58.750;17.004;2022-08-19T14:25:21;26.80;99.90
34985;DHT22;21190;58.750;17.004;2022-08-19T14:27:48;26.90;99.90
34985;DHT22;21190;58.750;17.004;2022-08-19T14:30:17;26.90;99.90
34985;DHT22;21190;58.750;17.004;2022-08-19T14:32:44;26.90;99.90
34985;DHT22;21190;58.750;17.004;2022-08-19T14:35:12;26.90;99.90
34985;DHT22;21190;58.750;17.004;2022-08-19T14:37:40;27.00;99.90
34985;DHT22;21190;58.750;17.004;2022-08-19T14:40:11;27.00;99.90
34985;DHT22;21190;58.750;17.004;2022-08-19T14:42:38;27.00;99.90
34985;DHT22;21190;58.750;17.004;2022-08-19T14:45:05;27.00;99.90
34985;DHT22;21190;58.750;17.004;2022-08-19T14:47:33;27.10;99.90
34985;DHT22;21190;58.750;17.004;2022-08-19T14:49:59;27.10;99.90
34985;DHT22;21190;58.750;17.004;2022-08-19T14:52:30;27.10;99.90
34985;DHT22;21190;58.750;17.004;2022-08-19T14:54:57;27.10;99.90
34985;DHT22;21190;58.750;17.004;2022-08-19T14:57:24;27.10;99.90
34985;DHT22;21190;58.750;17.004;2022-08-19T14:59:51;27.10;99.90
34985;DHT22;21190;58.750;17.004;2022-08-19T15:02:18;27.10;99.90
34985;DHT22;21190;58.750;17.004;2022-08-19T15:05:00;27.10;99.90
34985;DHT22;21190;58.750;17.004;2022-08-19T15:07:28;27.00;99.90
34985;DHT22;21190;58.750;17.004;2022-08-19T15:09:56;26.90;99.90
34985;DHT22;21190;58.750;17.004;2022-08-19T15:12:23;26.90;99.90
34985;DHT22;21190;58.750;17.004;2022-08-19T15:14:50;26.80;99.90
34985;DHT22;21190;58.750;17.004;2022-08-19T15:17:21;26.80;99.90
34985;DHT22;21190;58.750;17.004;2022-08-19T15:20:09;26.70;99.90
34985;DHT22;21190;58.750;17.004;2022-08-19T15:22:36;26.70;99.90
34985;DHT22;21190;58.750;17.004;2022-08-19T15:25:04;26.60;99.90
34985;DHT22;21190;58.750;17.004;2022-08-19T15:27:31;26.60;99.90
34985;DHT22;21190;58.750;17.004;2022-08-19T15:29:58;26.60;99.90
34985;DHT22;21190;58.750;17.004;2022-08-19T15:32:29;26.50;99.90
34985;DHT22;21190;58.750;17.004;2022-08-19T15:34:56;26.50;99.90
34985;DHT22;21190;58.750;17.004;2022-08-19T15:37:22;26.40;99.90
34985;DHT22;21190;58.750;17.004;2022-08-19T15:39:50;26.40;99.90
34985;DHT22;21190;58.750;17.004;2022-08-19T15:42:17;26.30;99.90
34985;DHT22;21190;58.750;17.004;2022-08-19T15:44:56;26.30;99.90
34985;DHT22;21190;58.750;17.004;2022-08-19T15:47:27;26.30;99.90
34985;DHT22;21190;58.750;17.004;2022-08-19T15:50:08;26.20;99.90
34985;DHT22;21190;58.750;17.004;2022-08-19T15:52:37;26.10;99.90